Time;durP1;ratioP1;P1;durP2;ratioP2;P2;SDS_P1;SDS_P2;PMS_P1;PMS_P2;Temp;Humidity;BMP_temperature;BMP_pressure;BME280_temperature;BME280_humidity;BME280_pressure;Samples;Min_cycle;Max_cycle;Signal;HPM_P1;HPM_P2
2022/03/25 00:00:36;;;;;;;18.33;7.47;;;;;;;6.86;46.04;101298.53;5556068;32;33940;-63
2022/03/25 00:03:40;;;;;;;15.75;6.93;;;;;;;6.79;46.37;101299.97;5569370;32;33998;-64
2022/03/25 00:06:42;;;;;;;16.67;7.60;;;;;;;6.83;46.37;101293.50;5569213;32;33993;-63
2022/03/25 00:09:45;;;;;;;20.85;8.02;;;;;;;6.78;46.76;101295.66;5569396;32;34432;-63
2022/03/25 00:12:48;;;;;;;21.45;7.55;;;;;;;6.74;47.44;101287.16;5569317;32;33922;-64
2022/03/25 00:15:51;;;;;;;20.83;8.75;;;;;;;6.68;47.61;101290.25;5569121;32;34444;-63
2022/03/25 00:18:54;;;;;;;17.85;9.02;;;;;;;6.65;48.14;101289.69;5555478;32;33921;-64
2022/03/25 00:21:57;;;;;;;27.80;9.38;;;;;;;6.63;48.04;101295.09;5569112;32;34146;-64
2022/03/25 00:25:00;;;;;;;23.80;10.00;;;;;;;6.51;48.00;101296.03;5569068;32;35222;-64
2022/03/25 00:28:03;;;;;;;22.98;10.70;;;;;;;6.37;48.12;101291.00;5569212;32;35293;-66
2022/03/25 00:31:09;;;;;;;24.52;10.25;;;;;;;6.34;48.13;101299.16;5555550;32;34565;-63
2022/03/25 00:34:12;;;;;;;23.85;10.38;;;;;;;6.24;48.22;101295.53;5568807;32;34681;-63
2022/03/25 00:37:15;;;;;;;22.75;10.63;;;;;;;6.20;48.31;101294.91;5568736;32;34620;-64
2022/03/25 00:40:18;;;;;;;24.65;9.90;;;;;;;6.14;48.41;101292.78;5568819;32;34625;-64
2022/03/25 00:43:22;;;;;;;20.58;10.60;;;;;;;6.02;48.61;101306.84;5569705;32;34657;-64
2022/03/25 00:46:27;;;;;;;25.20;10.70;;;;;;;5.92;48.82;101303.22;5571642;32;34053;-65
2022/03/25 00:49:30;;;;;;;23.10;10.35;;;;;;;5.97;48.16;101295.81;5571176;32;33908;-65
2022/03/25 00:52:34;;;;;;;25.37;10.05;;;;;;;6.03;47.73;101300.63;5571182;32;34550;-65
2022/03/25 00:55:38;;;;;;;23.08;10.15;;;;;;;6.09;47.37;101297.53;5571382;32;35263;-65
2022/03/25 00:58:42;;;;;;;21.80;10.63;;;;;;;5.93;47.66;101294.37;5571267;32;34082;-64
2022/03/25 01:01:46;;;;;;;25.00;10.70;;;;;;;6.12;47.83;101297.31;5571215;32;33962;-64
2022/03/25 01:04:49;;;;;;;18.73;10.73;;;;;;;5.92;48.38;101308.50;5571151;32;34606;-64
2022/03/25 01:07:52;;;;;;;21.77;10.55;;;;;;;5.63;49.19;101295.69;5571151;32;34076;-65
2022/03/25 01:10:55;;;;;;;24.63;11.10;;;;;;;5.49;49.61;101293.25;5570970;32;34686;-64
2022/03/25 01:13:58;;;;;;;20.58;10.10;;;;;;;5.69;48.82;101294.41;5571063;32;34633;-64
2022/03/25 01:17:02;;;;;;;18.35;10.02;;;;;;;5.47;50.35;101289.88;5557360;32;33926;-64
2022/03/25 01:20:05;;;;;;;24.25;10.55;;;;;;;5.25;50.30;101293.25;5571035;32;35334;-64
2022/03/25 01:23:09;;;;;;;22.85;10.15;;;;;;;5.17;50.39;101300.03;5570956;32;34254;-64
2022/03/25 01:26:12;;;;;;;23.40;10.23;;;;;;;5.32;50.29;101292.81;5571000;32;34687;-64
2022/03/25 01:29:16;;;;;;;21.73;10.80;;;;;;;5.29;49.86;101293.84;5570908;32;34074;-65
2022/03/25 01:32:19;;;;;;;20.12;11.05;;;;;;;5.32;49.88;101291.00;5570701;32;34101;-64
2022/03/25 01:35:24;;;;;;;23.50;10.40;;;;;;;5.38;49.54;101290.53;5570880;32;34012;-64
2022/03/25 01:38:27;;;;;;;23.25;11.12;;;;;;;5.19;49.97;101290.22;5557227;32;35152;-64
2022/03/25 01:41:30;;;;;;;22.23;10.00;;;;;;;5.22;50.47;101297.91;5570791;32;33964;-64
2022/03/25 01:44:33;;;;;;;19.30;10.10;;;;;;;5.03;50.51;101303.66;5570634;32;34025;-64
2022/03/25 01:47:39;;;;;;;23.80;10.15;;;;;;;4.92;51.00;101306.19;5571018;32;33958;-64
2022/03/25 01:50:43;;;;;;;23.10;10.18;;;;;;;4.87;51.34;101307.47;5570649;32;34048;-64
2022/03/25 01:53:49;;;;;;;23.20;10.57;;;;;;;4.82;51.68;101307.78;5569999;32;35382;-64
2022/03/25 01:57:12;;;;;;;24.83;10.55;;;;;;;4.84;51.59;101308.53;5570374;32;34661;-64
2022/03/25 02:00:17;;;;;;;23.95;9.80;;;;;;;4.80;51.77;101310.50;5570112;32;34626;-64
2022/03/25 02:03:22;;;;;;;23.67;10.23;;;;;;;4.69;51.77;101309.59;5570665;32;34064;-64
2022/03/25 02:06:25;;;;;;;21.05;10.43;;;;;;;4.63;52.43;101305.63;5570557;32;34726;-64
2022/03/25 02:09:29;;;;;;;21.90;10.48;;;;;;;4.63;52.43;101321.37;5570598;32;33989;-64
2022/03/25 02:12:32;;;;;;;21.80;10.45;;;;;;;4.58;52.56;101320.00;5570647;32;34328;-64
2022/03/25 02:15:47;;;;;;;24.52;11.23;;;;;;;4.72;53.04;101327.78;5570610;32;33911;-64
2022/03/25 02:18:50;;;;;;;23.62;10.48;;;;;;;4.94;52.04;101324.50;5570578;32;34618;-64
2022/03/25 02:21:52;;;;;;;22.23;10.27;;;;;;;4.72;52.55;101330.41;5570461;32;34793;-64
2022/03/25 02:24:56;;;;;;;24.80;11.25;;;;;;;4.57;53.30;101329.69;5570642;32;34418;-64
2022/03/25 02:28:01;;;;;;;21.80;10.63;;;;;;;4.49;53.33;101321.50;5570471;32;34238;-64
2022/03/25 02:31:05;;;;;;;23.30;10.70;;;;;;;4.49;53.63;101323.28;5570664;32;33943;-64
2022/03/25 02:34:09;;;;;;;21.25;10.40;;;;;;;4.38;54.13;101330.12;5570467;32;34007;-64
2022/03/25 02:37:14;;;;;;;21.17;9.60;;;;;;;4.28;54.31;101336.94;5570385;32;33944;-64
2022/03/25 02:40:16;;;;;;;18.42;10.15;;;;;;;4.32;55.00;101341.03;5570620;32;34008;-64
2022/03/25 02:43:20;;;;;;;24.35;9.50;;;;;;;4.65;54.41;101350.16;5570623;32;34060;-64
2022/03/25 02:46:23;;;;;;;26.23;10.88;;;;;;;4.40;54.71;101344.94;5570248;32;34573;-64
2022/03/25 02:49:26;;;;;;;25.52;10.45;;;;;;;4.25;55.98;101350.28;5570213;32;34727;-64
2022/03/25 02:52:29;;;;;;;23.33;10.77;;;;;;;4.14;56.52;101352.78;5570070;32;34001;-64
2022/03/25 02:55:32;;;;;;;20.48;9.63;;;;;;;4.06;56.19;101357.72;5570178;32;34174;-64
2022/03/25 02:58:35;;;;;;;25.45;10.73;;;;;;;3.96;56.80;101363.69;5570149;32;34639;-64
2022/03/25 03:01:38;;;;;;;20.85;10.68;;;;;;;3.90;57.05;101357.03;5570225;32;33951;-64
2022/03/25 03:04:40;;;;;;;21.98;10.95;;;;;;;3.85;57.21;101357.34;5570209;32;34367;-64
2022/03/25 03:07:47;;;;;;;21.45;10.45;;;;;;;3.78;57.64;101361.31;5570015;32;33872;-64
2022/03/25 03:10:50;;;;;;;25.08;10.20;;;;;;;3.77;58.26;101361.44;5570019;32;34824;-64
2022/03/25 03:13:54;;;;;;;23.85;11.00;;;;;;;3.70;58.66;101358.34;5570042;32;35298;-64
2022/03/25 03:16:56;;;;;;;22.02;10.40;;;;;;;3.67;58.30;101361.19;5570103;32;34285;-64
2022/03/25 03:20:00;;;;;;;21.08;10.77;;;;;;;3.60;58.71;101362.50;5556741;32;33898;-64
2022/03/25 03:23:03;;;;;;;24.12;10.90;;;;;;;3.58;58.99;101360.94;5569910;32;34074;-64
2022/03/25 03:26:06;;;;;;;22.45;10.35;;;;;;;3.54;59.04;101369.91;5570182;32;34225;-64
2022/03/25 03:29:09;;;;;;;22.33;10.40;;;;;;;3.49;59.45;101367.59;5569754;32;33983;-64
2022/03/25 03:32:12;;;;;;;20.73;10.38;;;;;;;3.48;59.53;101366.78;5569761;32;34175;-64
2022/03/25 03:35:14;;;;;;;24.70;10.02;;;;;;;3.45;59.59;101363.50;5569812;32;34242;-64
2022/03/25 03:38:17;;;;;;;22.83;10.80;;;;;;;3.43;60.00;101360.13;5569795;32;34417;-64
2022/03/25 03:41:20;;;;;;;25.12;11.27;;;;;;;3.57;60.22;101370.59;5569687;32;34363;-64
2022/03/25 03:44:23;;;;;;;21.55;11.35;;;;;;;3.49;60.10;101360.56;5569831;32;34606;-64
2022/03/25 03:47:25;;;;;;;21.52;11.20;;;;;;;3.62;60.18;101358.00;5555992;32;34090;-64
2022/03/25 03:50:27;;;;;;;22.05;10.68;;;;;;;3.63;60.02;101361.47;5569774;32;34041;-64
2022/03/25 03:53:30;;;;;;;23.40;10.68;;;;;;;3.49;60.20;101367.59;5569517;32;34616;-64
2022/03/25 03:56:32;;;;;;;27.95;10.60;;;;;;;3.42;60.82;101364.53;5555784;32;34243;-64
2022/03/25 03:59:35;;;;;;;23.90;10.88;;;;;;;3.41;61.23;101364.63;5555910;32;33932;-64
2022/03/25 04:02:39;;;;;;;26.20;11.07;;;;;;;3.39;61.28;101363.88;5569441;32;34664;-64
2022/03/25 04:05:44;;;;;;;23.20;11.25;;;;;;;3.35;61.25;101359.78;5569379;32;34725;-64
2022/03/25 04:08:47;;;;;;;27.58;11.88;;;;;;;3.34;61.44;101360.72;5569320;32;34015;-64
2022/03/25 04:11:50;;;;;;;21.55;11.32;;;;;;;3.30;61.91;101359.22;5569162;32;34867;-64
2022/03/25 04:14:52;;;;;;;26.50;11.38;;;;;;;3.28;61.68;101359.34;5569274;32;33999;-64
2022/03/25 04:17:56;;;;;;;23.23;11.43;;;;;;;3.26;61.87;101357.72;5556160;32;33994;-64
2022/03/25 04:20:59;;;;;;;22.42;10.60;;;;;;;3.23;62.05;101357.94;5558100;32;34626;-64
2022/03/25 04:24:03;;;;;;;25.27;10.88;;;;;;;3.51;62.17;101365.72;5571447;32;34055;-64
2022/03/25 04:27:05;;;;;;;23.23;11.85;;;;;;;3.80;60.81;101362.06;5571330;32;35549;-64
2022/03/25 04:30:09;;;;;;;32.00;12.37;;;;;;;4.00;60.16;101367.78;5571555;32;34264;-64
2022/03/25 04:33:11;;;;;;;24.73;11.95;;;;;;;3.94;63.05;101364.63;5571392;32;34046;-64
2022/03/25 04:36:15;;;;;;;25.98;12.20;;;;;;;4.05;64.29;101370.94;5571392;32;35301;-64
2022/03/25 04:39:18;;;;;;;22.58;9.88;;;;;;;3.94;64.33;101369.03;5571346;32;34068;-64
2022/03/25 04:42:21;;;;;;;23.67;10.13;;;;;;;3.71;65.67;101372.31;5571602;32;33962;-64
2022/03/25 04:45:25;;;;;;;22.08;9.77;;;;;;;3.61;65.31;101372.06;5571404;32;34675;-64
2022/03/25 04:48:28;;;;;;;21.58;9.60;;;;;;;3.53;65.21;101382.22;5571423;31;33909;-64
2022/03/25 04:51:30;;;;;;;24.83;10.43;;;;;;;3.31;65.40;101385.34;5571071;32;34636;-64
2022/03/25 04:54:34;;;;;;;19.65;9.27;;;;;;;3.20;65.80;101379.94;5557650;32;34525;-64
2022/03/25 04:57:36;;;;;;;20.73;9.15;;;;;;;3.14;66.19;101375.09;5571056;32;34827;-64
2022/03/25 05:00:39;;;;;;;20.25;9.23;;;;;;;3.19;65.92;101375.66;5571213;32;34156;-64
2022/03/25 05:03:42;;;;;;;19.08;9.02;;;;;;;3.18;66.16;101380.97;5557444;32;34742;-65
2022/03/25 05:06:45;;;;;;;20.62;9.00;;;;;;;3.16;66.30;101386.31;5571116;32;34689;-64
2022/03/25 05:09:48;;;;;;;22.35;9.77;;;;;;;3.22;65.50;101385.09;5571197;32;34050;-64
2022/03/25 05:12:51;;;;;;;19.27;8.90;;;;;;;3.44;64.31;101388.03;5571110;32;34036;-65
2022/03/25 05:15:54;;;;;;;20.95;9.30;;;;;;;3.62;63.85;101388.66;5571039;32;33933;-65
2022/03/25 05:18:57;;;;;;;25.45;9.55;;;;;;;3.67;63.36;101389.19;5571156;32;33966;-64
2022/03/25 05:21:59;;;;;;;21.45;9.82;;;;;;;3.76;63.31;101389.44;5571401;32;34019;-64
2022/03/25 05:25:06;;;;;;;24.37;11.12;;;;;;;3.89;63.11;101389.47;5570929;32;34065;-65
2022/03/25 05:28:09;;;;;;;25.40;12.20;;;;;;;4.04;63.11;101387.62;5570473;32;34235;-65
2022/03/25 05:31:11;;;;;;;28.12;11.75;;;;;;;4.22;62.38;101389.87;5570922;32;34074;-65
2022/03/25 05:34:14;;;;;;;31.60;13.15;;;;;;;4.35;61.90;101393.37;5571209;32;34598;-64
2022/03/25 05:37:17;;;;;;;25.75;12.85;;;;;;;4.59;61.09;101388.25;5570847;32;33880;-65
2022/03/25 05:40:22;;;;;;;29.85;12.75;;;;;;;4.64;61.37;101390.56;5570856;32;33971;-64
2022/03/25 05:43:25;;;;;;;31.42;11.95;;;;;;;4.82;60.10;101397.16;5570847;32;33983;-65
2022/03/25 05:46:28;;;;;;;29.98;12.40;;;;;;;4.90;59.85;101400.09;5571150;32;34330;-65
2022/03/25 05:49:31;;;;;;;32.25;12.65;;;;;;;5.02;59.24;101401.03;5570799;32;33915;-65
2022/03/25 05:52:34;;;;;;;34.45;12.93;;;;;;;5.10;59.21;101402.19;5570432;32;34073;-65
2022/03/25 05:55:37;;;;;;;36.60;12.77;;;;;;;5.21;58.62;101406.69;5570524;32;33977;-65
2022/03/25 05:58:40;;;;;;;36.75;14.10;;;;;;;5.35;58.37;101400.44;5570332;32;34927;-65
2022/03/25 06:01:43;;;;;;;29.37;12.73;;;;;;;5.46;57.83;101398.75;5570630;32;33920;-65
2022/03/25 06:04:46;;;;;;;32.40;12.37;;;;;;;5.60;57.25;101403.84;5570589;32;33930;-65
2022/03/25 06:07:48;;;;;;;37.78;13.93;;;;;;;5.74;56.72;101400.22;5570890;32;34588;-65
2022/03/25 06:10:51;;;;;;;48.13;14.98;;;;;;;5.98;56.39;101394.97;5570477;32;34700;-65
2022/03/25 06:13:55;;;;;;;43.85;14.93;;;;;;;6.23;56.04;101402.72;5570647;32;33893;-65
2022/03/25 06:16:58;;;;;;;37.85;14.73;;;;;;;6.44;54.88;101406.37;5570091;32;34690;-65
2022/03/25 06:20:00;;;;;;;32.33;14.30;;;;;;;6.71;54.30;101399.94;5570413;32;34704;-65
2022/03/25 06:23:04;;;;;;;35.25;15.02;;;;;;;6.98;52.99;101403.91;5570246;32;33977;-65
2022/03/25 06:26:07;;;;;;;42.95;15.32;;;;;;;7.27;52.19;101406.06;5570137;32;35222;-65
2022/03/25 06:29:10;;;;;;;36.45;16.52;;;;;;;7.63;51.44;101407.59;5570355;32;34143;-65
2022/03/25 06:32:12;;;;;;;43.90;16.08;;;;;;;8.36;48.85;101418.28;5570227;32;34777;-64
2022/03/25 06:35:15;;;;;;;38.83;15.38;;;;;;;9.09;46.86;101410.19;5556433;32;34061;-63
2022/03/25 06:38:18;;;;;;;40.42;16.10;;;;;;;8.99;46.12;101409.31;5569888;32;34600;-64
2022/03/25 06:41:26;;;;;;;40.05;17.50;;;;;;;9.35;45.45;101397.31;5555193;32;33230;-64
2022/03/25 06:44:29;;;;;;;31.98;16.02;;;;;;;10.39;44.07;101402.87;5570321;32;34401;-64
2022/03/25 06:47:32;;;;;;;43.95;16.70;;;;;;;11.73;40.80;101406.00;5569831;32;34034;-64
2022/03/25 06:50:35;;;;;;;36.25;16.83;;;;;;;12.86;38.36;101401.62;5569795;32;34381;-64
2022/03/25 06:53:38;;;;;;;51.05;19.17;;;;;;;13.49;36.59;101398.59;5569994;32;34702;-64
2022/03/25 06:56:41;;;;;;;47.35;18.33;;;;;;;13.48;35.82;101407.59;5569972;32;33907;-65
2022/03/25 06:59:44;;;;;;;34.25;17.25;;;;;;;14.51;34.87;101406.25;5555941;32;34474;-65
2022/03/25 07:02:47;;;;;;;30.70;15.32;;;;;;;15.64;32.75;101405.91;5569253;32;34631;-65
2022/03/25 07:05:52;;;;;;;40.22;15.23;;;;;;;16.01;31.77;101411.38;5555705;32;34002;-65
2022/03/25 07:08:56;;;;;;;44.20;15.32;;;;;;;15.53;32.40;101409.00;5569264;32;34518;-65
2022/03/25 07:11:59;;;;;;;37.95;15.63;;;;;;;15.15;32.72;101413.31;5569699;32;33904;-64
2022/03/25 07:15:04;;;;;;;34.67;15.07;;;;;;;16.48;31.28;101410.31;5569360;32;33982;-65
2022/03/25 07:18:07;;;;;;;29.58;13.07;;;;;;;17.54;29.62;101416.22;5569611;32;34574;-65
2022/03/25 07:21:11;;;;;;;21.45;9.15;;;;;;;16.89;29.57;101421.53;5555190;32;33990;-64
2022/03/25 07:24:14;;;;;;;19.35;8.80;;;;;;;17.08;28.18;101417.47;5569205;32;33935;-65
2022/03/25 07:27:39;;;;;;;16.12;7.93;;;;;;;17.55;27.94;101425.94;5489925;32;34680;-65
2022/03/25 07:30:41;;;;;;;20.67;8.52;;;;;;;17.43;27.93;101416.69;5536279;32;35480;-65
2022/03/25 07:33:44;;;;;;;19.08;8.57;;;;;;;17.16;27.41;101422.72;5569498;32;34630;-65
2022/03/25 07:36:50;;;;;;;17.52;8.85;;;;;;;18.13;26.00;101433.00;5570025;32;34504;-65
2022/03/25 07:39:53;;;;;;;20.25;8.88;;;;;;;18.09;25.46;101422.84;5569433;32;33962;-66
2022/03/25 07:42:58;;;;;;;20.05;8.73;;;;;;;16.87;26.93;101436.94;5569883;32;34011;-66
2022/03/25 07:46:01;;;;;;;16.67;8.93;;;;;;;15.80;27.74;101434.41;5569132;32;34379;-67
2022/03/25 07:49:06;;;;;;;16.52;7.87;;;;;;;15.98;27.86;101435.81;5569789;32;34320;-66
2022/03/25 07:52:10;;;;;;;15.93;8.00;;;;;;;15.06;29.05;101439.19;5569491;32;33924;-66
2022/03/25 07:55:17;;;;;;;16.20;8.10;;;;;;;15.49;28.62;101439.75;5569765;32;33991;-66
2022/03/25 07:58:20;;;;;;;17.73;8.43;;;;;;;16.09;27.52;101446.13;5569379;32;34631;-65
2022/03/25 08:01:23;;;;;;;16.95;8.55;;;;;;;16.37;27.38;101440.22;5569461;32;34420;-66
2022/03/25 08:04:26;;;;;;;21.15;8.93;;;;;;;17.50;25.84;101435.56;5556043;32;33872;-66
2022/03/25 08:07:29;;;;;;;20.58;8.95;;;;;;;18.16;24.81;101443.37;5569300;32;34578;-66
2022/03/25 08:10:32;;;;;;;18.58;8.70;;;;;;;17.61;25.66;101444.00;5568912;32;34094;-65
2022/03/25 08:13:35;;;;;;;22.70;8.65;;;;;;;18.78;24.51;101434.66;5568908;32;33914;-65
2022/03/25 08:16:38;;;;;;;17.95;8.18;;;;;;;18.56;24.82;101430.31;5568979;32;35228;-66
2022/03/25 08:19:41;;;;;;;16.70;8.40;;;;;;;18.98;24.24;101438.28;5569438;32;33915;-66
2022/03/25 08:22:44;;;;;;;15.52;8.30;;;;;;;19.91;23.72;101429.63;5569006;32;34153;-66
2022/03/25 08:29:09;;;;;;;17.95;7.87;;;;;;;18.67;24.41;101425.25;5568492;32;33987;-65
2022/03/25 08:32:19;;;;;;;20.08;8.15;;;;;;;18.53;24.26;101431.56;5568755;32;34242;-66
2022/03/25 08:35:22;;;;;;;16.83;8.80;;;;;;;17.95;24.69;101432.63;5568989;32;34625;-66
2022/03/25 08:38:25;;;;;;;15.65;8.07;;;;;;;18.10;25.08;101427.22;5568649;32;33981;-66
2022/03/25 08:41:28;;;;;;;15.90;7.97;;;;;;;19.07;23.56;101429.03;5568563;32;33934;-66
2022/03/25 08:44:31;;;;;;;18.40;7.87;;;;;;;19.18;23.36;101435.72;5568636;32;33977;-66
2022/03/25 08:47:34;;;;;;;15.40;7.85;;;;;;;19.05;23.27;101427.59;5568385;32;33932;-66
2022/03/25 08:50:36;;;;;;;17.98;8.57;;;;;;;18.83;23.54;101429.50;5568316;32;34698;-65
2022/03/25 08:53:40;;;;;;;15.57;8.27;;;;;;;19.05;23.78;101427.59;5568253;32;34721;-65
2022/03/25 08:56:43;;;;;;;18.00;8.52;;;;;;;18.76;23.54;101431.31;5568432;32;33863;-65
2022/03/25 08:59:47;;;;;;;15.80;8.25;;;;;;;18.60;23.65;101419.00;5568365;32;34336;-66
2022/03/25 09:02:49;;;;;;;17.33;8.32;;;;;;;17.21;25.27;101431.06;5568295;32;35442;-66
2022/03/25 09:05:52;;;;;;;18.80;8.73;;;;;;;15.68;27.64;101427.81;5570733;32;34011;-67
2022/03/25 09:08:55;;;;;;;15.73;7.85;;;;;;;15.27;28.57;101430.63;5570645;32;35225;-66
2022/03/25 09:11:59;;;;;;;14.52;8.18;;;;;;;15.09;28.64;101422.00;5570486;32;34912;-65
2022/03/25 09:15:07;;;;;;;18.50;9.13;;;;;;;14.90;29.25;101422.41;5557521;32;35300;-67
2022/03/25 09:18:10;;;;;;;18.15;8.27;;;;;;;14.86;29.70;101423.75;5570777;32;34607;-65
2022/03/25 09:21:13;;;;;;;17.20;7.40;;;;;;;14.57;30.03;101418.94;5570835;32;34079;-65
2022/03/25 09:24:16;;;;;;;17.55;7.93;;;;;;;14.64;30.01;101417.25;5557168;32;33963;-66
2022/03/25 09:27:18;;;;;;;15.02;7.28;;;;;;;14.61;30.37;101417.59;5570598;32;34634;-66
2022/03/25 09:30:21;;;;;;;14.87;7.22;;;;;;;14.59;30.34;101412.41;5570684;32;33980;-66
2022/03/25 09:33:37;;;;;;;17.73;7.10;;;;;;;14.38;30.41;101411.28;5570371;32;34083;-66
2022/03/25 09:36:40;;;;;;;18.12;7.82;;;;;;;14.37;30.57;101412.28;5570345;32;35204;-65
2022/03/25 09:39:42;;;;;;;13.35;7.15;;;;;;;14.46;30.89;101408.59;5570651;32;34118;-66
2022/03/25 09:42:46;;;;;;;14.75;7.18;;;;;;;14.59;30.63;101404.41;5570454;32;34854;-65
2022/03/25 09:45:49;;;;;;;14.68;7.95;;;;;;;14.64;30.25;101406.56;5570856;32;34624;-64
2022/03/25 09:48:52;;;;;;;16.17;7.60;;;;;;;14.52;30.27;101398.09;5570233;32;34087;-65
2022/03/25 09:52:04;;;;;;;13.95;7.00;;;;;;;14.69;30.41;101399.72;5570777;32;34043;-65
2022/03/25 09:55:11;;;;;;;13.77;6.75;;;;;;;14.77;29.75;101398.84;5570197;32;33800;-65
2022/03/25 09:58:22;;;;;;;19.58;7.32;;;;;;;14.68;30.08;101395.38;5556639;32;32662;-65
2022/03/25 10:01:25;;;;;;;21.48;7.70;;;;;;;14.86;30.07;101381.00;5570345;32;34740;-64
2022/03/25 10:04:57;;;;;;;16.58;7.35;;;;;;;15.42;29.93;101379.94;5570181;32;35005;-65
2022/03/25 10:08:00;;;;;;;23.33;8.15;;;;;;;15.36;29.10;101368.09;5568551;32;34562;-65
2022/03/25 10:11:21;;;;;;;23.10;7.60;;;;;;;15.29;29.48;101374.31;5570447;32;33981;-65
2022/03/25 10:14:28;;;;;;;15.27;7.18;;;;;;;15.23;29.33;101374.00;5570067;32;34598;-65
2022/03/25 10:17:44;;;;;;;17.27;7.32;;;;;;;15.34;29.57;101375.47;5569501;32;33981;-64
2022/03/25 10:20:52;;;;;;;18.48;8.32;;;;;;;15.17;29.36;101365.84;5570475;32;34553;-65
2022/03/25 10:23:55;;;;;;;13.18;7.22;;;;;;;15.21;29.24;101373.34;5570407;32;34034;-65
2022/03/25 10:27:07;;;;;;;25.62;7.22;;;;;;;15.44;29.00;101359.22;5565903;32;138325;-65
2022/03/25 10:30:10;;;;;;;20.50;7.40;;;;;;;15.58;28.72;101356.66;5569989;32;34321;-65
2022/03/25 10:33:27;;;;;;;19.27;7.82;;;;;;;15.58;28.89;101353.16;5569863;32;33975;-66
2022/03/25 10:36:30;;;;;;;19.50;8.63;;;;;;;15.80;28.66;101343.44;5570422;32;34153;-67
2022/03/25 10:39:33;;;;;;;15.02;8.30;;;;;;;15.96;28.09;101348.69;5570597;32;34070;-65
2022/03/25 10:42:36;;;;;;;19.10;8.75;;;;;;;15.95;28.38;101342.50;5575506;32;34139;-65
2022/03/25 10:45:40;;;;;;;18.45;8.68;;;;;;;15.63;28.64;101338.22;5561521;32;34014;-65
2022/03/25 10:48:53;;;;;;;17.30;8.18;;;;;;;15.92;28.07;101336.69;5572803;32;33920;-65
2022/03/25 10:51:57;;;;;;;16.05;8.30;;;;;;;16.06;28.35;101338.56;5569711;32;33943;-65
2022/03/25 10:55:18;;;;;;;23.10;7.60;;;;;;;16.03;27.90;101330.88;5569668;32;34603;-65
2022/03/25 10:58:27;;;;;;;15.30;7.20;;;;;;;16.36;27.92;101326.09;5556502;32;35222;-66
2022/03/25 11:01:30;;;;;;;14.90;6.28;;;;;;;17.59;26.28;101327.12;5569890;32;34557;-66
2022/03/25 11:04:34;;;;;;;12.98;6.15;;;;;;;20.00;22.72;101332.47;5569663;32;33949;-67
2022/03/25 11:07:39;;;;;;;15.35;6.53;;;;;;;22.47;20.33;101321.91;5569702;32;34847;-67
2022/03/25 11:10:42;;;;;;;12.32;6.30;;;;;;;23.97;18.61;101325.66;5569709;32;34085;-66
2022/03/25 11:13:47;;;;;;;13.55;6.43;;;;;;;24.25;18.90;101325.84;5569291;32;33929;-66
2022/03/25 11:16:52;;;;;;;11.70;6.85;;;;;;;25.04;18.09;101313.50;5569555;32;34367;-66
2022/03/25 11:19:56;;;;;;;14.45;6.45;;;;;;;25.54;16.76;101308.25;5569934;32;33906;-66
2022/03/25 11:23:04;;;;;;;12.70;6.18;;;;;;;25.62;16.87;101307.03;5569737;32;33946;-67
2022/03/25 11:26:11;;;;;;;14.48;5.93;;;;;;;28.15;14.75;101307.66;5569085;32;33930;-67
2022/03/25 11:29:16;;;;;;;12.73;6.25;;;;;;;28.20;14.27;101311.25;5569375;32;34309;-67
2022/03/25 11:32:19;;;;;;;11.18;6.50;;;;;;;27.69;14.73;101298.28;5569452;32;34633;-67
2022/03/25 11:35:24;;;;;;;13.50;5.93;;;;;;;27.80;14.84;101300.00;5569668;32;33966;-68
2022/03/25 11:38:27;;;;;;;12.27;6.15;;;;;;;28.59;13.97;101297.31;5569193;32;35540;-68
2022/03/25 11:41:29;;;;;;;9.93;5.70;;;;;;;29.30;13.83;101291.09;5555913;32;33945;-68
2022/03/25 11:44:33;;;;;;;11.50;6.00;;;;;;;26.65;15.19;101288.31;5555741;32;34357;-67
2022/03/25 11:47:36;;;;;;;12.63;5.90;;;;;;;25.17;16.21;101285.28;5569337;32;33980;-68
2022/03/25 11:50:44;;;;;;;12.32;5.72;;;;;;;29.16;13.25;101287.19;5555363;32;34728;-68
2022/03/25 11:53:46;;;;;;;12.50;5.50;;;;;;;29.88;12.61;101282.66;5555446;32;34594;-67
2022/03/25 11:56:49;;;;;;;12.02;5.82;;;;;;;28.59;13.51;101283.66;5555571;32;33915;-68
2022/03/25 11:59:57;;;;;;;16.10;5.55;;;;;;;29.84;12.51;101273.38;5568920;32;33933;-68
2022/03/25 12:03:02;;;;;;;10.63;5.97;;;;;;;30.50;12.25;101264.00;5567635;32;35223;-67
2022/03/25 12:06:06;;;;;;;13.85;6.60;;;;;;;27.04;14.33;101271.94;5568769;32;34424;-68
2022/03/25 12:09:18;;;;;;;9.80;5.50;;;;;;;30.16;12.16;101272.00;5568698;32;34309;-68
2022/03/25 12:12:51;;;;;;;9.35;5.80;;;;;;;29.82;12.41;101259.97;5555125;32;34130;-67
2022/03/25 12:15:54;;;;;;;7.40;4.97;;;;;;;29.22;12.68;101258.78;5561457;32;34074;-68
2022/03/25 12:18:57;;;;;;;8.30;4.87;;;;;;;30.55;11.73;101260.41;5555188;32;34624;-68
2022/03/25 12:22:00;;;;;;;8.00;4.32;;;;;;;30.77;10.95;101258.16;5568707;32;33927;-68
2022/03/25 12:25:13;;;;;;;8.93;5.00;;;;;;;31.34;10.76;101254.84;5568737;32;33948;-68
2022/03/25 12:28:23;;;;;;;9.95;5.00;;;;;;;32.07;10.30;101259.47;5554473;32;35297;-69
2022/03/25 12:31:26;;;;;;;7.18;3.50;;;;;;;31.89;10.08;101250.06;5568545;32;33865;-68
2022/03/25 12:34:54;;;;;;;7.45;4.70;;;;;;;29.53;10.49;101245.22;5568776;32;33899;-69
2022/03/25 12:38:23;;;;;;;10.25;4.70;;;;;;;34.31;8.38;101239.53;5568452;32;32686;-68
2022/03/25 12:41:29;;;;;;;;;;;;;;;35.21;8.01;101233.22;5571179;32;34236;-69
2022/03/25 12:44:54;;;;;;;12.05;6.07;;;;;;;33.90;9.83;101232.00;5571080;32;34672;-69
2022/03/25 12:48:07;;;;;;;11.05;6.50;;;;;;;32.74;9.88;101231.84;5571213;32;33989;-69
2022/03/25 12:51:11;;;;;;;10.45;6.30;;;;;;;32.59;10.31;101229.25;5571230;32;34350;-69
2022/03/25 12:54:17;;;;;;;10.55;6.10;;;;;;;30.93;11.48;101223.28;5556851;32;34458;-68
2022/03/25 12:57:31;;;;;;;10.10;6.10;;;;;;;33.77;9.55;101212.72;5557526;32;34002;-68
2022/03/25 13:00:43;;;;;;;14.30;6.45;;;;;;;31.56;10.77;101229.78;5571057;32;34452;-68
2022/03/25 13:03:47;;;;;;;13.73;6.87;;;;;;;35.24;8.78;101216.87;5557441;32;34552;-68
2022/03/25 13:06:56;;;;;;;9.02;5.95;;;;;;;33.76;9.73;101217.41;5570923;32;33998;-68
2022/03/25 13:09:59;;;;;;;13.77;6.43;;;;;;;31.04;11.42;101217.47;5557421;32;35173;-68
2022/03/25 13:13:04;;;;;;;14.90;6.53;;;;;;;32.04;10.60;101219.72;5570726;32;34170;-68
2022/03/25 13:16:09;;;;;;;12.27;6.15;;;;;;;29.76;12.05;101206.37;5570729;32;34309;-68
2022/03/25 13:19:12;;;;;;;13.32;6.68;;;;;;;33.92;9.54;101202.25;5570683;32;33921;-68
2022/03/25 13:22:17;;;;;;;12.00;6.80;;;;;;;31.56;10.63;101207.81;5570917;32;34663;-68
2022/03/25 13:25:25;;;;;;;14.98;7.12;;;;;;;28.20;13.10;101204.84;5570772;32;34054;-68
2022/03/25 13:28:34;;;;;;;16.52;6.78;;;;;;;30.94;11.47;101206.53;5570455;32;34765;-68
2022/03/25 13:31:37;;;;;;;10.82;6.80;;;;;;;31.97;10.61;101194.53;5570454;32;34362;-68
2022/03/25 13:34:41;;;;;;;14.68;6.90;;;;;;;33.26;10.03;101204.47;5570556;32;34154;-68
2022/03/25 13:37:43;;;;;;;14.73;6.80;;;;;;;34.00;9.45;101200.72;5570690;32;34210;-68
2022/03/25 13:40:49;;;;;;;13.50;7.55;;;;;;;31.20;11.09;101207.25;5570941;32;34020;-68
2022/03/25 13:44:04;;;;;;;12.57;7.03;;;;;;;33.31;9.79;101193.41;5570468;32;34720;-68
2022/03/25 13:47:07;;;;;;;11.20;6.93;;;;;;;32.86;10.08;101198.44;5557226;32;34560;-68
2022/03/25 13:50:19;;;;;;;15.80;6.75;;;;;;;33.32;9.97;101197.75;5570814;32;34647;-68
2022/03/25 13:53:33;;;;;;;12.60;6.85;;;;;;;32.44;10.50;101190.16;5570649;32;34649;-68
2022/03/25 13:56:45;;;;;;;13.77;6.25;;;;;;;34.28;9.10;101179.53;5570661;32;35147;-68
2022/03/25 13:59:48;;;;;;;12.07;6.50;;;;;;;32.55;10.11;101187.00;5570444;32;33916;-68
2022/03/25 14:02:51;;;;;;;11.90;6.60;;;;;;;32.86;10.01;101179.19;5570360;32;33952;-68
2022/03/25 14:05:54;;;;;;;11.68;7.22;;;;;;;32.74;10.22;101185.13;5570905;32;33862;-68
2022/03/25 14:08:57;;;;;;;13.50;7.12;;;;;;;32.42;10.50;101184.16;5570455;32;34591;-68
2022/03/25 14:12:15;;;;;;;12.20;6.43;;;;;;;32.21;10.67;101176.16;5570347;32;34004;-68
2022/03/25 14:15:18;;;;;;;11.20;6.37;;;;;;;31.12;11.16;101177.69;5570247;32;34839;-68